Time;durP1;ratioP1;P1;durP2;ratioP2;P2;SDS_P1;SDS_P2;PMS_P1;PMS_P2;Temp;Humidity;BMP_temperature;BMP_pressure;BME280_temperature;BME280_humidity;BME280_pressure;Samples;Min_cycle;Max_cycle;Signal;HPM_P1;HPM_P2
2023/08/12 00:00:19;;;;;;;5.82;2.75;;;20.30;99.90;;;;;;5045076;28;20045;-34
2023/08/12 00:02:46;;;;;;;6.53;3.92;;;20.30;99.90;;;;;;5039719;28;20049;-34
2023/08/12 00:05:12;;;;;;;7.47;3.85;;;20.30;99.90;;;;;;5059240;28;20044;-34
2023/08/12 00:07:42;;;;;;;5.80;3.53;;;20.30;99.90;;;;;;5065050;28;20072;-34
2023/08/12 00:10:09;;;;;;;5.28;3.15;;;20.20;99.90;;;;;;5052708;28;20552;-34
2023/08/12 00:12:36;;;;;;;5.88;3.35;;;20.20;99.90;;;;;;5064039;28;20056;-34
2023/08/12 00:15:04;;;;;;;8.82;4.28;;;20.20;99.90;;;;;;5065450;28;20131;-33
2023/08/12 00:17:30;;;;;;;6.28;3.33;;;20.20;99.90;;;;;;5060156;28;20056;-34
2023/08/12 00:19:55;;;;;;;8.35;3.83;;;20.20;99.90;;;;;;5055100;28;20411;-34
2023/08/12 00:22:22;;;;;;;6.28;3.65;;;20.10;99.90;;;;;;5063977;28;20451;-33
2023/08/12 00:24:48;;;;;;;6.25;3.60;;;20.10;99.90;;;;;;5062129;28;20049;-33
2023/08/12 00:27:14;;;;;;;7.82;3.60;;;20.00;99.90;;;;;;5055013;28;20479;-33
2023/08/12 00:29:39;;;;;;;7.65;4.05;;;20.00;99.90;;;;;;5064793;28;20059;-34
2023/08/12 00:32:05;;;;;;;5.85;3.53;;;20.00;99.90;;;;;;5054289;28;20075;-34
2023/08/12 00:34:31;;;;;;;6.63;3.55;;;20.00;99.90;;;;;;5039938;28;20116;-33
2023/08/12 00:36:57;;;;;;;6.18;3.20;;;20.00;99.90;;;;;;5053744;28;20044;-33
2023/08/12 00:39:22;;;;;;;5.30;3.08;;;20.00;99.90;;;;;;5059859;28;20048;-33
2023/08/12 00:41:48;;;;;;;8.10;4.93;;;20.00;99.90;;;;;;5062056;28;20125;-33
2023/08/12 00:44:14;;;;;;;6.63;3.55;;;20.10;99.90;;;;;;5057325;28;20445;-34
2023/08/12 00:46:42;;;;;;;6.10;3.50;;;20.10;99.90;;;;;;5061137;28;20044;-34
2023/08/12 00:49:08;;;;;;;7.78;3.83;;;20.00;99.90;;;;;;5061107;28;20052;-34
2023/08/12 00:51:35;;;;;;;6.65;4.00;;;20.00;99.90;;;;;;5059173;28;20170;-34
2023/08/12 00:54:05;;;;;;;8.90;3.78;;;20.00;99.90;;;;;;5059148;28;20101;-34
2023/08/12 00:56:31;;;;;;;5.18;3.10;;;20.00;99.90;;;;;;5052806;28;20114;-34
2023/08/12 00:59:00;;;;;;;7.90;3.75;;;20.00;99.90;;;;;;5067867;28;20048;-34
2023/08/12 01:01:26;;;;;;;5.70;3.15;;;19.90;99.90;;;;;;5064874;28;20113;-34
2023/08/12 01:03:52;;;;;;;5.05;3.45;;;19.90;99.90;;;;;;5065933;28;20064;-33
2023/08/12 01:06:17;;;;;;;5.07;3.20;;;19.90;99.90;;;;;;5066583;28;20048;-33
2023/08/12 01:08:44;;;;;;;6.32;3.00;;;19.90;99.90;;;;;;5057146;28;20050;-34
2023/08/12 01:11:20;;;;;;;6.55;3.47;;;19.80;99.90;;;;;;5053065;28;20049;-34
2023/08/12 01:13:56;;;;;;;5.95;3.50;;;19.80;99.90;;;;;;5066581;28;20078;-33
2023/08/12 01:16:22;;;;;;;7.22;3.40;;;19.70;99.90;;;;;;5066363;28;20060;-33
2023/08/12 01:18:50;;;;;;;8.00;3.65;;;19.70;99.90;;;;;;5066251;28;20063;-34
2023/08/12 01:21:17;;;;;;;5.82;3.55;;;19.70;99.90;;;;;;5059683;28;20069;-33
2023/08/12 01:23:44;;;;;;;5.80;3.67;;;19.70;99.90;;;;;;5046816;28;20063;-34
2023/08/12 01:26:10;;;;;;;7.00;3.40;;;19.60;99.90;;;;;;5067206;28;20053;-35
2023/08/12 01:28:35;;;;;;;5.63;3.45;;;19.60;99.90;;;;;;5058194;28;20057;-34
2023/08/12 01:31:11;;;;;;;8.73;3.60;;;19.60;99.90;;;;;;5065786;28;20383;-34
2023/08/12 01:33:52;;;;;;;5.53;3.10;;;19.60;99.90;;;;;;5066001;28;20135;-34
2023/08/12 01:36:20;;;;;;;6.30;3.70;;;19.60;99.90;;;;;;5050178;28;20053;-34
2023/08/12 01:38:47;;;;;;;9.68;4.47;;;19.50;99.90;;;;;;5061308;28;20426;-34
2023/08/12 01:41:14;;;;;;;7.75;4.03;;;19.50;99.90;;;;;;5060862;28;20060;-33
2023/08/12 01:43:41;;;;;;;5.50;3.45;;;19.40;99.90;;;;;;5052568;28;20049;-34
2023/08/12 01:46:06;;;;;;;5.63;3.85;;;19.40;99.90;;;;;;5045854;28;20060;-34
2023/08/12 01:48:32;;;;;;;9.63;3.92;;;19.40;99.90;;;;;;5042144;28;20049;-34
2023/08/12 01:50:58;;;;;;;4.70;3.22;;;19.40;99.90;;;;;;5051984;28;20057;-34
2023/08/12 01:53:24;;;;;;;5.30;3.17;;;19.40;99.90;;;;;;5063549;28;20045;-34
2023/08/12 01:55:51;;;;;;;7.65;4.53;;;19.40;99.90;;;;;;5042172;28;20055;-34
2023/08/12 01:58:16;;;;;;;5.47;3.55;;;19.40;99.90;;;;;;5062918;28;20040;-34
2023/08/12 02:00:42;;;;;;;5.60;3.47;;;19.30;99.90;;;;;;5061276;28;20619;-34
2023/08/12 02:03:07;;;;;;;7.22;4.05;;;19.30;99.90;;;;;;5062757;28;20473;-33
2023/08/12 02:05:33;;;;;;;8.15;4.20;;;19.40;99.90;;;;;;5061863;28;20060;-33
2023/08/12 02:07:59;;;;;;;7.70;4.65;;;19.30;99.90;;;;;;5060201;28;20448;-33
2023/08/12 02:10:25;;;;;;;6.65;4.40;;;19.30;99.90;;;;;;5065449;28;20493;-34
2023/08/12 02:12:50;;;;;;;8.82;4.32;;;19.30;99.90;;;;;;5062810;28;20405;-34
2023/08/12 02:15:16;;;;;;;7.68;4.10;;;19.30;99.90;;;;;;5063431;28;20052;-34
2023/08/12 02:17:42;;;;;;;6.13;3.67;;;19.30;99.90;;;;;;5064653;28;20074;-33
2023/08/12 02:20:08;;;;;;;9.60;4.82;;;19.30;99.90;;;;;;5058592;28;20441;-33
2023/08/12 02:22:34;;;;;;;6.45;4.38;;;19.30;99.90;;;;;;5067649;28;20136;-34
2023/08/12 02:24:59;;;;;;;8.65;4.18;;;19.30;99.90;;;;;;5063255;28;20486;-33
2023/08/12 02:27:25;;;;;;;6.95;4.03;;;19.30;99.90;;;;;;5062082;28;20769;-34
2023/08/12 02:29:51;;;;;;;11.20;4.28;;;19.30;99.90;;;;;;5065429;28;20052;-33
2023/08/12 02:32:16;;;;;;;6.60;3.80;;;19.30;99.90;;;;;;5063581;28;20452;-33
2023/08/12 02:34:42;;;;;;;7.43;4.63;;;19.40;99.90;;;;;;5063427;28;20044;-33
2023/08/12 02:37:08;;;;;;;7.25;4.57;;;19.40;99.90;;;;;;5061157;28;20142;-34
2023/08/12 02:39:33;;;;;;;7.68;3.90;;;19.40;99.90;;;;;;5062681;28;20052;-34
2023/08/12 02:41:59;;;;;;;8.35;4.55;;;19.50;99.90;;;;;;5066111;28;20048;-33
2023/08/12 02:44:25;;;;;;;10.57;5.13;;;19.50;99.90;;;;;;5064674;28;20090;-33
2023/08/12 02:46:50;;;;;;;6.65;4.18;;;19.60;99.90;;;;;;5068760;28;20051;-33
2023/08/12 02:49:16;;;;;;;9.13;4.55;;;19.60;99.90;;;;;;5061043;28;20066;-33
2023/08/12 02:51:41;;;;;;;7.25;4.25;;;19.60;99.90;;;;;;5059174;28;20054;-33
2023/08/12 02:54:07;;;;;;;8.77;4.57;;;19.60;99.90;;;;;;5059596;28;20056;-33
2023/08/12 02:56:33;;;;;;;8.85;4.43;;;19.60;99.90;;;;;;5059052;28;20049;-34
2023/08/12 02:58:58;;;;;;;7.50;4.35;;;19.70;99.90;;;;;;5060095;28;20048;-34
2023/08/12 03:01:24;;;;;;;8.98;4.13;;;19.60;99.90;;;;;;5061804;28;20157;-33
2023/08/12 03:03:50;;;;;;;7.13;4.35;;;19.60;99.90;;;;;;5061098;28;20138;-33
2023/08/12 03:06:16;;;;;;;4.28;3.10;;;19.70;99.90;;;;;;5059929;28;20048;-33
2023/08/12 03:08:42;;;;;;;5.38;3.40;;;19.70;99.90;;;;;;5059896;28;20407;-34
2023/08/12 03:11:07;;;;;;;7.97;4.28;;;19.70;99.90;;;;;;5066014;28;20405;-33
2023/08/12 03:13:33;;;;;;;8.73;4.55;;;19.70;99.90;;;;;;5065922;28;20048;-33
2023/08/12 03:15:58;;;;;;;8.25;4.60;;;19.80;99.90;;;;;;5065452;28;20355;-34
2023/08/12 03:18:24;;;;;;;7.53;4.03;;;19.80;99.90;;;;;;5064064;28;20052;-34
2023/08/12 03:20:50;;;;;;;8.00;4.63;;;19.80;99.90;;;;;;5066139;28;20044;-34
2023/08/12 03:23:16;;;;;;;7.18;3.90;;;19.80;99.90;;;;;;5063141;28;20056;-34
2023/08/12 03:25:41;;;;;;;9.40;4.43;;;19.80;99.90;;;;;;5054917;28;20052;-34
2023/08/12 03:28:07;;;;;;;7.15;4.15;;;19.80;99.90;;;;;;5065718;28;20060;-34
2023/08/12 03:30:33;;;;;;;6.88;3.78;;;19.80;99.90;;;;;;5063483;28;20422;-33
2023/08/12 03:32:59;;;;;;;9.98;5.43;;;19.80;99.90;;;;;;5061432;28;20079;-34
2023/08/12 03:35:24;;;;;;;8.85;4.68;;;19.80;99.90;;;;;;5064282;28;20079;-35
2023/08/12 03:37:52;;;;;;;8.57;5.05;;;19.90;99.90;;;;;;5059090;28;20096;-34
2023/08/12 03:40:18;;;;;;;8.93;4.82;;;19.80;99.90;;;;;;5063637;28;20052;-35
2023/08/12 03:42:43;;;;;;;10.63;4.72;;;19.90;99.90;;;;;;5062093;28;20059;-34
2023/08/12 03:45:09;;;;;;;12.50;5.30;;;19.80;99.90;;;;;;5064042;28;20548;-34
2023/08/12 03:47:35;;;;;;;8.13;4.78;;;19.80;99.90;;;;;;5062742;28;20183;-34
2023/08/12 03:50:01;;;;;;;8.13;4.78;;;19.90;99.90;;;;;;5060410;28;20478;-34
2023/08/12 03:52:26;;;;;;;7.47;4.30;;;19.80;99.90;;;;;;5062121;28;20065;-34
2023/08/12 03:54:53;;;;;;;9.70;4.97;;;19.80;99.90;;;;;;5061305;28;20055;-34
2023/08/12 03:57:18;;;;;;;9.70;5.22;;;19.80;99.90;;;;;;5061956;28;20056;-34
2023/08/12 03:59:44;;;;;;;9.27;5.57;;;19.80;99.90;;;;;;5062214;28;20414;-34
2023/08/12 04:02:10;;;;;;;12.10;5.57;;;19.80;99.90;;;;;;5058756;28;20052;-34
2023/08/12 04:04:36;;;;;;;9.82;5.85;;;19.70;99.90;;;;;;5053766;28;20486;-34
2023/08/12 04:07:01;;;;;;;12.15;5.93;;;19.80;99.90;;;;;;5044860;28;20448;-35
2023/08/12 04:09:27;;;;;;;9.40;5.22;;;19.70;99.90;;;;;;5055848;28;20053;-34
2023/08/12 04:11:53;;;;;;;13.80;5.70;;;19.70;99.90;;;;;;5054859;28;20060;-34
2023/08/12 04:14:18;;;;;;;10.80;6.55;;;19.70;99.90;;;;;;5055310;28;20131;-34
2023/08/12 04:16:44;;;;;;;10.30;6.05;;;19.70;99.90;;;;;;5053330;28;20079;-34
2023/08/12 04:19:10;;;;;;;12.23;6.97;;;19.70;99.90;;;;;;5056407;28;20131;-34
2023/08/12 04:21:35;;;;;;;11.77;7.03;;;19.70;99.90;;;;;;5055391;28;20486;-34
2023/08/12 04:24:02;;;;;;;10.50;6.35;;;19.70;99.90;;;;;;5052154;28;20060;-34
2023/08/12 04:26:27;;;;;;;13.05;7.15;;;19.70;99.90;;;;;;5047786;28;20060;-34
2023/08/12 04:28:53;;;;;;;14.77;6.75;;;19.70;99.90;;;;;;5054458;28;20745;-34
2023/08/12 04:31:19;;;;;;;12.85;6.93;;;19.70;99.90;;;;;;5031661;28;20148;-34
2023/08/12 04:33:44;;;;;;;11.88;7.63;;;19.70;99.90;;;;;;5055108;28;20072;-34
2023/08/12 04:36:10;;;;;;;13.77;7.40;;;19.70;99.90;;;;;;5058233;28;20150;-35
2023/08/12 04:38:36;;;;;;;12.02;7.15;;;19.70;99.90;;;;;;5063093;28;20090;-34
2023/08/12 04:41:02;;;;;;;15.43;8.07;;;19.70;99.90;;;;;;5061155;28;20048;-34
2023/08/12 04:43:27;;;;;;;13.90;7.78;;;19.70;99.90;;;;;;5064417;28;20056;-34
2023/08/12 04:45:53;;;;;;;12.93;8.13;;;19.70;99.90;;;;;;5058552;28;21295;-34
2023/08/12 04:48:19;;;;;;;11.32;6.97;;;19.70;99.90;;;;;;5064071;28;20052;-34
2023/08/12 04:50:44;;;;;;;14.25;8.50;;;19.70;99.90;;;;;;5064999;28;20578;-34
2023/08/12 04:53:10;;;;;;;16.33;8.43;;;19.70;99.90;;;;;;5054371;28;20131;-34
2023/08/12 04:55:36;;;;;;;15.20;8.70;;;19.70;99.90;;;;;;5057972;28;20053;-34
2023/08/12 04:58:02;;;;;;;14.25;8.45;;;19.70;99.90;;;;;;5055266;28;20080;-34
2023/08/12 05:00:28;;;;;;;12.45;8.35;;;19.70;99.90;;;;;;5060739;28;20060;-34
2023/08/12 05:02:54;;;;;;;12.15;7.15;;;19.80;99.90;;;;;;5061299;28;20067;-34
2023/08/12 05:05:20;;;;;;;15.75;8.13;;;19.80;99.90;;;;;;5055778;28;20057;-34
2023/08/12 05:07:49;;;;;;;13.55;7.35;;;19.90;99.90;;;;;;5060622;28;20056;-34
2023/08/12 05:10:16;;;;;;;13.07;8.70;;;19.90;99.90;;;;;;5066491;28;20067;-34
2023/08/12 05:12:43;;;;;;;12.15;7.30;;;20.00;99.90;;;;;;5066910;28;20049;-34
2023/08/12 05:15:09;;;;;;;13.75;8.45;;;20.00;99.90;;;;;;5064221;28;20051;-34
2023/08/12 05:17:35;;;;;;;16.27;8.95;;;20.10;99.90;;;;;;5056902;28;20057;-34
2023/08/12 05:20:01;;;;;;;12.07;7.30;;;20.10;99.90;;;;;;5062898;28;20055;-35
2023/08/12 05:22:26;;;;;;;16.25;9.20;;;20.20;99.90;;;;;;5067956;28;20041;-34
2023/08/12 05:24:52;;;;;;;12.60;8.07;;;20.20;99.90;;;;;;5050175;28;20087;-33
2023/08/12 05:27:18;;;;;;;16.25;8.25;;;20.30;99.90;;;;;;5065970;28;20093;-33
2023/08/12 05:29:43;;;;;;;15.40;8.15;;;20.30;99.90;;;;;;5066479;28;20405;-34
2023/08/12 05:32:09;;;;;;;13.55;8.38;;;20.30;99.90;;;;;;5061408;28;20048;-33
2023/08/12 05:34:34;;;;;;;16.48;9.45;;;20.30;99.90;;;;;;5063528;28;20041;-34
2023/08/12 05:37:00;;;;;;;17.42;9.07;;;20.30;99.90;;;;;;5055022;28;20083;-33
2023/08/12 05:39:26;;;;;;;18.38;10.38;;;20.30;99.90;;;;;;5056122;28;20078;-33
2023/08/12 05:41:52;;;;;;;14.25;8.48;;;20.20;99.90;;;;;;5063502;28;20394;-34
2023/08/12 05:44:18;;;;;;;13.07;8.90;;;20.30;99.90;;;;;;5065568;28;20052;-34
2023/08/12 05:46:43;;;;;;;14.50;8.38;;;20.30;99.90;;;;;;5062337;28;20480;-34
2023/08/12 05:49:09;;;;;;;16.40;9.70;;;20.30;99.90;;;;;;5048604;28;20493;-33
2023/08/12 05:51:35;;;;;;;13.80;8.73;;;20.30;99.90;;;;;;5040255;28;20095;-34
2023/08/12 05:54:00;;;;;;;14.65;8.65;;;20.30;99.90;;;;;;5050174;28;20094;-33
2023/08/12 05:56:26;;;;;;;17.50;10.93;;;20.40;99.90;;;;;;5062085;28;20049;-34
2023/08/12 05:58:52;;;;;;;16.15;10.63;;;20.30;99.90;;;;;;5043863;28;20051;-34
2023/08/12 06:01:18;;;;;;;17.20;10.70;;;20.30;99.90;;;;;;5054248;28;20060;-34
2023/08/12 06:03:44;;;;;;;19.48;11.20;;;20.30;99.90;;;;;;5056327;28;20067;-34
2023/08/12 06:06:10;;;;;;;14.77;10.35;;;20.30;99.90;;;;;;5057667;28;20052;-34
2023/08/12 06:08:35;;;;;;;15.90;10.32;;;20.30;99.90;;;;;;5055198;28;20421;-35
2023/08/12 06:11:01;;;;;;;22.05;12.20;;;20.30;99.90;;;;;;5061223;28;20059;-34
2023/08/12 06:13:27;;;;;;;13.27;10.40;;;20.20;99.90;;;;;;5049729;28;20091;-34
2023/08/12 06:15:52;;;;;;;17.05;11.20;;;20.20;99.90;;;;;;5048765;28;20553;-34
2023/08/12 06:18:18;;;;;;;16.25;9.45;;;20.20;99.90;;;;;;5060181;28;20531;-34
2023/08/12 06:20:44;;;;;;;14.70;10.75;;;20.20;99.90;;;;;;5062141;28;20052;-34
2023/08/12 06:23:09;;;;;;;19.27;11.73;;;20.30;99.90;;;;;;5060508;28;20135;-34
2023/08/12 06:25:36;;;;;;;21.92;11.82;;;20.30;99.90;;;;;;5061137;28;20068;-34
2023/08/12 06:28:04;;;;;;;14.75;9.30;;;20.30;99.90;;;;;;5050482;28;20106;-34
2023/08/12 06:30:30;;;;;;;18.33;11.73;;;20.30;99.90;;;;;;5046375;28;20559;-34
2023/08/12 06:32:55;;;;;;;20.30;11.93;;;20.30;99.90;;;;;;5063965;28;20044;-34
2023/08/12 06:35:21;;;;;;;19.80;11.93;;;20.30;99.90;;;;;;5048925;28;20069;-34
2023/08/12 06:37:47;;;;;;;17.42;11.52;;;20.30;99.90;;;;;;5060972;28;20506;-34
2023/08/12 06:40:13;;;;;;;14.93;10.40;;;20.30;99.90;;;;;;5065177;28;20045;-34
2023/08/12 06:42:38;;;;;;;18.17;11.43;;;20.30;99.90;;;;;;5047904;28;20049;-34
2023/08/12 06:45:05;;;;;;;17.73;11.98;;;20.30;99.90;;;;;;5062870;28;20085;-35
2023/08/12 06:47:31;;;;;;;18.85;11.95;;;20.30;99.90;;;;;;5057003;28;20072;-35
2023/08/12 06:49:59;;;;;;;17.38;12.40;;;20.30;99.90;;;;;;5066749;28;20122;-35
2023/08/12 06:52:25;;;;;;;16.67;11.07;;;20.30;99.90;;;;;;5062430;28;20182;-35
2023/08/12 06:54:51;;;;;;;16.83;10.18;;;20.30;99.90;;;;;;5065126;28;20704;-34
2023/08/12 06:57:16;;;;;;;18.92;11.13;;;20.30;99.90;;;;;;5064914;28;20063;-35
2023/08/12 06:59:42;;;;;;;16.48;10.90;;;20.30;99.90;;;;;;5069733;28;20575;-35
2023/08/12 07:02:08;;;;;;;16.48;10.98;;;20.40;99.90;;;;;;5065094;28;20411;-34
2023/08/12 07:04:34;;;;;;;18.35;12.20;;;20.50;99.90;;;;;;5066212;28;20057;-33
2023/08/12 07:06:59;;;;;;;16.48;11.00;;;20.40;99.90;;;;;;5053663;28;20414;-34
2023/08/12 07:09:25;;;;;;;16.00;11.38;;;20.40;99.90;;;;;;5052960;28;20257;-34
2023/08/12 07:11:51;;;;;;;19.58;12.43;;;20.40;99.90;;;;;;5064957;28;20055;-34
2023/08/12 07:14:16;;;;;;;18.27;11.27;;;20.40;99.90;;;;;;5066736;28;20055;-36
2023/08/12 07:16:42;;;;;;;16.05;11.38;;;20.40;99.90;;;;;;5059506;28;20049;-35
2023/08/12 07:19:08;;;;;;;20.13;11.40;;;20.50;99.90;;;;;;5051740;28;20059;-35
2023/08/12 07:21:34;;;;;;;15.40;10.98;;;20.40;99.90;;;;;;5063955;28;20398;-36
2023/08/12 07:23:59;;;;;;;17.23;11.10;;;20.50;99.90;;;;;;5067160;28;20059;-35
2023/08/12 07:26:25;;;;;;;17.83;10.90;;;20.50;99.90;;;;;;5054801;28;20052;-34
2023/08/12 07:28:51;;;;;;;16.75;10.65;;;20.40;99.90;;;;;;5061400;28;20051;-34
2023/08/12 07:31:19;;;;;;;18.38;10.60;;;20.40;99.90;;;;;;5060993;28;20454;-34
2023/08/12 07:33:45;;;;;;;15.25;10.27;;;20.40;99.90;;;;;;5065955;28;20162;-34
2023/08/12 07:36:11;;;;;;;19.80;11.13;;;20.50;99.90;;;;;;5068635;28;20486;-34
2023/08/12 07:38:36;;;;;;;20.40;11.63;;;20.40;99.90;;;;;;5065663;28;20052;-34
2023/08/12 07:41:02;;;;;;;19.88;11.73;;;20.40;99.90;;;;;;5064446;28;20048;-34
2023/08/12 07:43:28;;;;;;;17.65;10.57;;;20.40;99.90;;;;;;5063445;28;20060;-34
2023/08/12 07:45:54;;;;;;;17.17;11.02;;;20.40;99.90;;;;;;5063691;28;20103;-34
2023/08/12 07:48:20;;;;;;;18.17;10.73;;;20.30;99.90;;;;;;5052051;28;20511;-34
2023/08/12 07:50:48;;;;;;;17.88;10.93;;;20.30;99.90;;;;;;5063831;28;20139;-34
2023/08/12 07:53:15;;;;;;;14.65;9.60;;;20.30;99.90;;;;;;5060330;28;20867;-34
2023/08/12 07:55:41;;;;;;;13.68;9.65;;;20.20;99.90;;;;;;5055326;28;20483;-34
2023/08/12 07:58:07;;;;;;;12.80;8.18;;;20.20;99.90;;;;;;5064214;28;20072;-34
2023/08/12 08:00:33;;;;;;;14.05;10.07;;;20.20;99.90;;;;;;5056127;28;20084;-34
2023/08/12 08:02:59;;;;;;;16.27;9.30;;;20.20;99.90;;;;;;5036670;28;20052;-34
2023/08/12 08:05:25;;;;;;;15.98;9.68;;;20.20;99.90;;;;;;5051970;28;20063;-34
2023/08/12 08:07:50;;;;;;;13.93;9.82;;;20.20;99.90;;;;;;5050443;28;20056;-34
2023/08/12 08:10:16;;;;;;;15.63;9.18;;;20.20;99.90;;;;;;5055376;28;20398;-34
2023/08/12 08:12:42;;;;;;;11.77;7.75;;;20.20;99.90;;;;;;5059526;28;20395;-34
2023/08/12 08:15:07;;;;;;;11.90;6.97;;;20.10;99.90;;;;;;5056571;28;20072;-34
2023/08/12 08:17:33;;;;;;;8.88;6.20;;;20.10;99.90;;;;;;5056904;28;20395;-34
2023/08/12 08:19:59;;;;;;;12.68;7.47;;;20.00;99.90;;;;;;5054214;28;20495;-34
2023/08/12 08:22:24;;;;;;;10.52;6.93;;;20.00;99.90;;;;;;5075342;28;20040;-34
2023/08/12 08:24:50;;;;;;;10.13;6.50;;;20.00;99.90;;;;;;5062511;28;20054;-34
2023/08/12 08:27:15;;;;;;;9.38;5.82;;;20.00;99.90;;;;;;5060571;28;20040;-34
2023/08/12 08:29:41;;;;;;;8.98;4.90;;;20.00;99.90;;;;;;5062570;28;20135;-34
2023/08/12 08:32:07;;;;;;;6.00;4.13;;;20.00;99.90;;;;;;5055153;28;20075;-34
2023/08/12 08:34:32;;;;;;;6.97;4.25;;;20.00;99.90;;;;;;5053989;28;20102;-34
2023/08/12 08:36:58;;;;;;;9.85;4.55;;;20.00;99.90;;;;;;5064974;28;20137;-34
2023/08/12 08:39:24;;;;;;;7.45;4.00;;;20.00;99.90;;;;;;5066838;28;20059;-34
2023/08/12 08:41:50;;;;;;;5.10;3.70;;;19.90;99.90;;;;;;5049346;28;20145;-34
2023/08/12 08:44:21;;;;;;;6.53;3.90;;;20.00;99.90;;;;;;5064342;28;20048;-35
2023/08/12 08:46:51;;;;;;;7.60;4.43;;;20.00;99.90;;;;;;5064369;28;20048;-35
2023/08/12 08:49:18;;;;;;;6.95;4.18;;;20.00;99.90;;;;;;5066366;28;20451;-35
2023/08/12 08:51:46;;;;;;;6.90;3.72;;;20.00;99.90;;;;;;5063732;28;20083;-35
2023/08/12 08:54:12;;;;;;;6.38;3.22;;;20.00;99.90;;;;;;5066130;28;20494;-35
2023/08/12 08:56:38;;;;;;;7.05;2.72;;;20.10;99.90;;;;;;5063653;28;20143;-35
2023/08/12 08:59:04;;;;;;;3.60;2.13;;;20.10;99.90;;;;;;5063654;28;20474;-35
2023/08/12 09:01:31;;;;;;;3.40;2.10;;;20.10;99.90;;;;;;5064731;28;20068;-35
2023/08/12 09:03:57;;;;;;;5.30;2.20;;;20.10;99.90;;;;;;5061806;28;20049;-35
2023/08/12 09:06:25;;;;;;;3.78;2.00;;;20.20;99.90;;;;;;5055449;28;20087;-35
2023/08/12 09:08:54;;;;;;;4.00;2.17;;;20.20;99.90;;;;;;5063441;28;20059;-35
2023/08/12 09:11:20;;;;;;;3.17;1.85;;;20.20;99.90;;;;;;5047775;28;20513;-35
2023/08/12 09:13:47;;;;;;;3.05;1.85;;;20.20;99.90;;;;;;5062418;28;20045;-35
2023/08/12 09:16:13;;;;;;;2.65;1.50;;;20.10;99.90;;;;;;5059987;28;20089;-35
2023/08/12 09:18:41;;;;;;;4.57;1.90;;;20.10;99.90;;;;;;5058513;28;20057;-35
2023/08/12 09:21:08;;;;;;;2.53;1.42;;;20.00;99.90;;;;;;5057039;28;20092;-35
2023/08/12 09:23:38;;;;;;;1.88;1.20;;;20.00;99.90;;;;;;5051755;28;20059;-35
2023/08/12 09:26:20;;;;;;;2.78;1.52;;;20.00;99.90;;;;;;5047488;28;20097;-35
2023/08/12 09:28:47;;;;;;;3.20;1.30;;;20.00;99.90;;;;;;5066161;28;20460;-35
2023/08/12 09:31:28;;;;;;;2.47;1.33;;;19.90;99.90;;;;;;5061915;28;20053;-35
2023/08/12 09:34:04;;;;;;;2.55;1.00;;;19.90;99.90;;;;;;5050875;28;20049;-35
2023/08/12 09:36:30;;;;;;;1.73;0.82;;;20.00;99.90;;;;;;5059683;28;20118;-35
2023/08/12 09:38:58;;;;;;;2.58;1.10;;;20.00;99.90;;;;;;5064012;28;20052;-35
2023/08/12 09:41:25;;;;;;;2.17;1.13;;;20.00;99.90;;;;;;5053266;28;20048;-35
2023/08/12 09:43:53;;;;;;;1.63;0.93;;;20.00;99.90;;;;;;5061905;28;20490;-35
2023/08/12 09:46:21;;;;;;;2.72;1.27;;;20.10;99.90;;;;;;5063460;28;20059;-35
2023/08/12 09:48:48;;;;;;;2.60;1.25;;;20.10;99.90;;;;;;5066491;28;20052;-35
2023/08/12 09:51:15;;;;;;;2.00;1.15;;;20.10;99.90;;;;;;5067106;28;20494;-35
2023/08/12 09:53:42;;;;;;;1.70;0.80;;;20.20;99.90;;;;;;5054169;28;20143;-35
2023/08/12 09:56:11;;;;;;;2.03;1.00;;;20.20;99.90;;;;;;5056991;28;21278;-35
2023/08/12 09:58:37;;;;;;;1.70;0.73;;;20.30;99.90;;;;;;5067137;28;20118;-35
2023/08/12 10:01:07;;;;;;;1.40;0.90;;;20.30;99.90;;;;;;5056789;28;20070;-35
2023/08/12 10:03:35;;;;;;;1.05;0.60;;;20.20;99.90;;;;;;5066462;28;20451;-35
2023/08/12 10:06:03;;;;;;;1.02;0.60;;;20.30;99.90;;;;;;5066637;28;20057;-35
2023/08/12 10:08:29;;;;;;;1.98;0.90;;;20.30;99.90;;;;;;5064956;28;20059;-35
2023/08/12 10:10:55;;;;;;;1.55;0.57;;;20.30;99.90;;;;;;5055827;28;20071;-35
2023/08/12 10:13:24;;;;;;;1.17;0.75;;;20.40;99.90;;;;;;5054851;28;20048;-35
2023/08/12 10:15:51;;;;;;;1.83;0.90;;;20.40;99.90;;;;;;5061960;28;20043;-35
2023/08/12 10:18:18;;;;;;;1.67;0.73;;;20.40;99.90;;;;;;5052171;28;20501;-35
2023/08/12 10:20:45;;;;;;;1.63;1.05;;;20.40;99.90;;;;;;5066614;28;20151;-35
2023/08/12 10:23:15;;;;;;;1.65;0.80;;;20.40;99.90;;;;;;5063536;28;20068;-35
2023/08/12 10:25:43;;;;;;;3.63;1.00;;;20.30;99.90;;;;;;5053297;28;20534;-35
2023/08/12 10:28:09;;;;;;;1.67;1.10;;;20.30;99.90;;;;;;5042305;28;20076;-35
2023/08/12 10:30:35;;;;;;;1.67;0.93;;;20.20;99.90;;;;;;5060313;28;21372;-35
2023/08/12 10:33:00;;;;;;;1.80;1.20;;;20.20;99.90;;;;;;5066080;28;20117;-35
2023/08/12 10:35:46;;;;;;;2.17;0.80;;;20.30;99.90;;;;;;5062641;28;20736;-35
2023/08/12 10:38:24;;;;;;;1.58;0.57;;;20.40;99.90;;;;;;5062771;28;20079;-35
2023/08/12 10:40:50;;;;;;;1.08;0.40;;;20.50;99.90;;;;;;5064059;28;20114;-35
2023/08/12 10:43:16;;;;;;;0.32;0.20;;;20.60;99.90;;;;;;5063052;28;20140;-35
2023/08/12 10:45:51;;;;;;;0.60;0.22;;;20.50;99.90;;;;;;5065556;28;20201;-35
2023/08/12 10:48:27;;;;;;;0.60;0.28;;;20.50;99.90;;;;;;5064802;28;20056;-35
2023/08/12 10:50:59;;;;;;;0.77;0.30;;;20.60;99.90;;;;;;5063102;28;20048;-35
2023/08/12 10:53:30;;;;;;;0.40;0.10;;;20.60;99.90;;;;;;5064382;28;20045;-35
2023/08/12 10:56:02;;;;;;;0.95;0.40;;;20.60;99.90;;;;;;5057555;28;20059;-35
2023/08/12 10:58:44;;;;;;;0.68;0.25;;;20.70;99.90;;;;;;5063248;28;20060;-35
2023/08/12 11:01:16;;;;;;;0.63;0.40;;;20.70;99.90;;;;;;5059598;28;20063;-35
2023/08/12 11:03:45;;;;;;;1.08;0.40;;;20.70;99.90;;;;;;5058056;28;20117;-35
2023/08/12 11:06:11;;;;;;;0.52;0.20;;;20.70;99.90;;;;;;5054904;28;20053;-35
2023/08/12 11:08:46;;;;;;;1.85;0.52;;;20.70;99.90;;;;;;5063825;28;20470;-35
2023/08/12 11:11:25;;;;;;;1.25;0.32;;;20.60;99.90;;;;;;5064863;28;20063;-35
2023/08/12 11:13:56;;;;;;;1.67;0.50;;;20.50;99.90;;;;;;5065787;28;20059;-35
2023/08/12 11:16:42;;;;;;;2.38;0.80;;;20.20;99.90;;;;;;5064109;28;20053;-35
2023/08/12 11:19:08;;;;;;;1.80;0.60;;;19.90;99.90;;;;;;5061735;28;20055;-35
2023/08/12 11:21:36;;;;;;;3.72;1.00;;;19.80;99.90;;;;;;5063484;28;20060;-35
2023/08/12 11:24:02;;;;;;;4.55;1.10;;;19.60;99.90;;;;;;5061538;28;20496;-35
2023/08/12 11:26:28;;;;;;;3.15;0.90;;;19.70;99.90;;;;;;5062534;28;20044;-35
2023/08/12 11:28:54;;;;;;;3.58;1.02;;;19.70;99.90;;;;;;5064288;28;20059;-35
2023/08/12 11:31:21;;;;;;;4.03;1.15;;;19.70;99.90;;;;;;5060559;28;20413;-35
2023/08/12 11:33:46;;;;;;;3.90;1.30;;;19.70;99.90;;;;;;5064754;28;20057;-35
2023/08/12 11:36:12;;;;;;;2.83;1.00;;;19.80;99.90;;;;;;5058887;28;20543;-35
2023/08/12 11:38:38;;;;;;;4.35;0.90;;;19.90;99.90;;;;;;5075368;28;20053;-35
2023/08/12 11:41:04;;;;;;;2.50;0.80;;;20.00;99.90;;;;;;5062579;28;20067;-35
2023/08/12 11:43:32;;;;;;;3.85;1.00;;;20.00;99.90;;;;;;5063774;28;20054;-35
2023/08/12 11:45:59;;;;;;;5.50;1.38;;;20.10;99.90;;;;;;5061984;28;20063;-35
2023/08/12 11:48:24;;;;;;;4.28;1.00;;;20.30;99.90;;;;;;5058233;28;20859;-35
2023/08/12 11:50:50;;;;;;;2.95;0.93;;;20.40;99.90;;;;;;5057088;28;20490;-35
2023/08/12 11:53:16;;;;;;;3.00;1.38;;;20.40;99.90;;;;;;5049252;28;20556;-35
2023/08/12 11:55:43;;;;;;;1.65;0.65;;;20.40;99.90;;;;;;5054175;28;20052;-35
2023/08/12 11:58:09;;;;;;;3.33;0.70;;;20.40;99.90;;;;;;5066572;28;20142;-35
2023/08/12 12:00:34;;;;;;;2.35;0.68;;;20.50;99.90;;;;;;5064937;28;20426;-35
2023/08/12 12:03:00;;;;;;;5.72;1.15;;;20.50;99.90;;;;;;5066137;28;20040;-35
2023/08/12 12:05:34;;;;;;;2.55;0.80;;;20.50;99.90;;;;;;5062672;28;20114;-35
2023/08/12 12:08:00;;;;;;;2.90;1.67;;;20.60;99.90;;;;;;5065536;28;20148;-36
2023/08/12 12:10:31;;;;;;;5.43;1.15;;;20.60;99.90;;;;;;5060879;28;20135;-35
2023/08/12 12:12:58;;;;;;;5.68;0.90;;;20.70;99.90;;;;;;5065768;28;20117;-35
2023/08/12 12:15:24;;;;;;;3.65;1.08;;;20.90;99.90;;;;;;5039430;28;20052;-35
2023/08/12 12:17:51;;;;;;;4.63;0.90;;;21.10;99.90;;;;;;5050954;28;20405;-35
2023/08/12 12:20:17;;;;;;;4.03;0.88;;;21.20;99.90;;;;;;5055559;28;20619;-35
2023/08/12 12:22:47;;;;;;;4.45;0.75;;;21.40;99.90;;;;;;5056465;28;20517;-36
2023/08/12 12:25:16;;;;;;;4.80;1.10;;;21.60;99.90;;;;;;5050578;28;20509;-35
2023/08/12 12:27:43;;;;;;;4.00;0.77;;;21.60;99.90;;;;;;5051517;28;20060;-35
2023/08/12 12:30:10;;;;;;;4.35;0.90;;;21.80;99.90;;;;;;5053360;28;20057;-35
2023/08/12 12:32:37;;;;;;;3.05;1.33;;;21.70;99.90;;;;;;5047646;28;20191;-35
2023/08/12 12:35:03;;;;;;;3.95;0.93;;;21.80;99.90;;;;;;5064681;28;20136;-35
2023/08/12 12:37:29;;;;;;;3.88;0.82;;;21.90;99.90;;;;;;5047494;28;20056;-35